sensor_id;sensor_type;location;lat;lon;timestamp;pressure;altitude;pressure_sealevel;temperature;humidity
57847;BME280;43675;50.030;21.952;2023-05-24T00:02:15;98248.02;;;15.77;69.64
57847;BME280;43675;50.030;21.952;2023-05-24T00:04:42;98243.52;;;15.77;69.65
57847;BME280;43675;50.030;21.952;2023-05-24T00:07:09;98247.36;;;15.77;69.69
57847;BME280;43675;50.030;21.952;2023-05-24T00:09:35;98246.34;;;15.78;69.68
57847;BME280;43675;50.030;21.952;2023-05-24T00:12:02;98244.24;;;15.80;69.59
57847;BME280;43675;50.030;21.952;2023-05-24T00:14:29;98247.84;;;15.82;69.43
57847;BME280;43675;50.030;21.952;2023-05-24T00:16:56;98248.52;;;15.85;69.28
57847;BME280;43675;50.030;21.952;2023-05-24T00:19:22;98247.50;;;15.87;69.27
57847;BME280;43675;50.030;21.952;2023-05-24T00:21:49;98256.38;;;15.88;69.22
57847;BME280;43675;50.030;21.952;2023-05-24T00:24:16;98256.01;;;15.89;69.16
57847;BME280;43675;50.030;21.952;2023-05-24T00:26:43;98255.64;;;15.89;69.11
57847;BME280;43675;50.030;21.952;2023-05-24T00:29:10;98257.23;;;15.91;68.92
57847;BME280;43675;50.030;21.952;2023-05-24T00:31:37;98260.37;;;15.93;68.77
57847;BME280;43675;50.030;21.952;2023-05-24T00:34:03;98264.39;;;15.94;68.71
57847;BME280;43675;50.030;21.952;2023-05-24T00:36:30;98265.03;;;15.93;68.62
57847;BME280;43675;50.030;21.952;2023-05-24T00:38:57;98264.60;;;15.91;68.65
57847;BME280;43675;50.030;21.952;2023-05-24T00:41:24;98266.79;;;15.90;68.67
57847;BME280;43675;50.030;21.952;2023-05-24T00:43:50;98270.95;;;15.89;68.67
57847;BME280;43675;50.030;21.952;2023-05-24T00:46:29;98271.74;;;15.87;68.76
57847;BME280;43675;50.030;21.952;2023-05-24T00:48:57;98267.77;;;15.83;68.85
57847;BME280;43675;50.030;21.952;2023-05-24T00:51:25;98265.87;;;15.83;68.83
57847;BME280;43675;50.030;21.952;2023-05-24T00:53:52;98267.64;;;15.81;68.97
57847;BME280;43675;50.030;21.952;2023-05-24T00:56:20;98269.72;;;15.76;69.05
57847;BME280;43675;50.030;21.952;2023-05-24T00:58:47;98267.39;;;15.72;69.25
57847;BME280;43675;50.030;21.952;2023-05-24T01:01:13;98262.05;;;15.68;69.35
57847;BME280;43675;50.030;21.952;2023-05-24T01:03:40;98266.19;;;15.63;69.52
57847;BME280;43675;50.030;21.952;2023-05-24T01:06:07;98262.50;;;15.58;69.62
57847;BME280;43675;50.030;21.952;2023-05-24T01:08:59;98264.85;;;15.54;69.75
57847;BME280;43675;50.030;21.952;2023-05-24T01:11:57;98268.83;;;15.51;69.92
57847;BME280;43675;50.030;21.952;2023-05-24T01:16:55;98264.89;;;15.48;69.86
57847;BME280;43675;50.030;21.952;2023-05-24T01:27:36;98266.39;;;15.38;70.32
57847;BME280;43675;50.030;21.952;2023-05-24T01:30:04;98268.87;;;15.37;70.44
57847;BME280;43675;50.030;21.952;2023-05-24T01:32:31;98264.82;;;15.37;70.62
57847;BME280;43675;50.030;21.952;2023-05-24T01:34:57;98259.77;;;15.36;70.74
57847;BME280;43675;50.030;21.952;2023-05-24T01:37:24;98257.06;;;15.35;70.81
57847;BME280;43675;50.030;21.952;2023-05-24T01:39:51;98255.48;;;15.33;70.88
57847;BME280;43675;50.030;21.952;2023-05-24T01:48:30;98259.45;;;15.25;70.92
57847;BME280;43675;50.030;21.952;2023-05-24T01:51:02;98260.02;;;15.25;70.93
57847;BME280;43675;50.030;21.952;2023-05-24T01:53:40;98258.85;;;15.25;71.03
57847;BME280;43675;50.030;21.952;2023-05-24T01:56:10;98261.34;;;15.26;71.12
57847;BME280;43675;50.030;21.952;2023-05-24T01:58:39;98261.33;;;15.24;71.27
57847;BME280;43675;50.030;21.952;2023-05-24T02:01:08;98259.00;;;15.20;71.44
57847;BME280;43675;50.030;21.952;2023-05-24T02:03:35;98260.45;;;15.19;71.60
57847;BME280;43675;50.030;21.952;2023-05-24T02:06:02;98261.41;;;15.16;71.73
57847;BME280;43675;50.030;21.952;2023-05-24T02:08:28;98263.88;;;15.14;71.95
57847;BME280;43675;50.030;21.952;2023-05-24T02:10:55;98267.38;;;15.13;71.96
57847;BME280;43675;50.030;21.952;2023-05-24T02:13:21;98267.19;;;15.12;72.21
57847;BME280;43675;50.030;21.952;2023-05-24T02:15:48;98267.61;;;15.10;72.33
57847;BME280;43675;50.030;21.952;2023-05-24T02:18:14;98265.97;;;15.08;72.54
57847;BME280;43675;50.030;21.952;2023-05-24T02:20:41;98267.34;;;15.06;72.68
57847;BME280;43675;50.030;21.952;2023-05-24T02:23:07;98265.39;;;15.05;72.72
57847;BME280;43675;50.030;21.952;2023-05-24T02:25:34;98267.31;;;15.03;72.86
57847;BME280;43675;50.030;21.952;2023-05-24T02:28:01;98269.57;;;15.02;72.95
57847;BME280;43675;50.030;21.952;2023-05-24T02:30:27;98268.90;;;15.00;73.05
57847;BME280;43675;50.030;21.952;2023-05-24T02:32:54;98276.17;;;14.99;73.09
57847;BME280;43675;50.030;21.952;2023-05-24T02:35:21;98272.52;;;14.96;73.23
57847;BME280;43675;50.030;21.952;2023-05-24T02:37:47;98275.00;;;14.95;73.34
57847;BME280;43675;50.030;21.952;2023-05-24T02:40:14;98274.40;;;14.95;73.45
57847;BME280;43675;50.030;21.952;2023-05-24T02:42:40;98276.54;;;14.93;73.61
57847;BME280;43675;50.030;21.952;2023-05-24T02:45:07;98276.13;;;14.90;73.69
57847;BME280;43675;50.030;21.952;2023-05-24T02:47:34;98277.04;;;14.90;73.81
57847;BME280;43675;50.030;21.952;2023-05-24T02:50:01;98279.95;;;14.88;73.84
57847;BME280;43675;50.030;21.952;2023-05-24T02:52:27;98279.83;;;14.87;73.94
57847;BME280;43675;50.030;21.952;2023-05-24T02:54:54;98281.31;;;14.86;74.00
57847;BME280;43675;50.030;21.952;2023-05-24T02:57:20;98287.53;;;14.86;74.25
57847;BME280;43675;50.030;21.952;2023-05-24T02:59:47;98286.77;;;14.86;74.24
57847;BME280;43675;50.030;21.952;2023-05-24T03:02:13;98288.99;;;14.87;74.29
57847;BME280;43675;50.030;21.952;2023-05-24T03:04:40;98291.98;;;14.88;74.31
57847;BME280;43675;50.030;21.952;2023-05-24T03:07:06;98292.67;;;14.88;74.28
57847;BME280;43675;50.030;21.952;2023-05-24T03:09:33;98293.46;;;14.89;74.37
57847;BME280;43675;50.030;21.952;2023-05-24T03:11:59;98294.45;;;14.91;74.48
57847;BME280;43675;50.030;21.952;2023-05-24T03:14:26;98291.17;;;14.92;74.59
57847;BME280;43675;50.030;21.952;2023-05-24T03:16:52;98291.13;;;14.94;74.60
57847;BME280;43675;50.030;21.952;2023-05-24T03:19:19;98293.46;;;14.95;74.67
57847;BME280;43675;50.030;21.952;2023-05-24T03:21:45;98293.48;;;14.96;74.83
57847;BME280;43675;50.030;21.952;2023-05-24T03:24:12;98294.20;;;14.96;74.85
57847;BME280;43675;50.030;21.952;2023-05-24T03:26:39;98295.19;;;14.97;75.01
57847;BME280;43675;50.030;21.952;2023-05-24T03:29:06;98296.33;;;14.99;75.03
57847;BME280;43675;50.030;21.952;2023-05-24T03:31:33;98295.66;;;15.01;75.01
57847;BME280;43675;50.030;21.952;2023-05-24T03:33:59;98302.23;;;15.04;75.15
57847;BME280;43675;50.030;21.952;2023-05-24T03:36:26;98303.45;;;15.05;75.13
57847;BME280;43675;50.030;21.952;2023-05-24T03:38:52;98303.90;;;15.08;75.23
57847;BME280;43675;50.030;21.952;2023-05-24T03:41:19;98302.63;;;15.09;75.15
57847;BME280;43675;50.030;21.952;2023-05-24T03:43:45;98303.79;;;15.11;75.36
57847;BME280;43675;50.030;21.952;2023-05-24T03:46:12;98307.29;;;15.15;75.39
57847;BME280;43675;50.030;21.952;2023-05-24T03:48:38;98306.29;;;15.18;75.49
57847;BME280;43675;50.030;21.952;2023-05-24T03:51:05;98305.25;;;15.21;75.59
57847;BME280;43675;50.030;21.952;2023-05-24T03:53:31;98308.32;;;15.25;75.75
57847;BME280;43675;50.030;21.952;2023-05-24T03:55:58;98309.77;;;15.29;75.80
57847;BME280;43675;50.030;21.952;2023-05-24T03:58:25;98312.67;;;15.32;75.91
57847;BME280;43675;50.030;21.952;2023-05-24T04:00:51;98315.03;;;15.35;75.99
57847;BME280;43675;50.030;21.952;2023-05-24T04:03:18;98313.88;;;15.39;76.05
57847;BME280;43675;50.030;21.952;2023-05-24T04:05:45;98318.58;;;15.43;76.03
57847;BME280;43675;50.030;21.952;2023-05-24T04:08:11;98323.80;;;15.46;76.13
57847;BME280;43675;50.030;21.952;2023-05-24T04:10:38;98321.66;;;15.50;76.26
57847;BME280;43675;50.030;21.952;2023-05-24T04:13:04;98323.70;;;15.54;76.24
57847;BME280;43675;50.030;21.952;2023-05-24T04:15:31;98326.86;;;15.59;76.26
57847;BME280;43675;50.030;21.952;2023-05-24T04:17:57;98330.89;;;15.64;76.33
57847;BME280;43675;50.030;21.952;2023-05-24T04:20:24;98330.84;;;15.70;76.41
57847;BME280;43675;50.030;21.952;2023-05-24T04:22:51;98332.48;;;15.77;76.39
57847;BME280;43675;50.030;21.952;2023-05-24T04:25:18;98335.37;;;15.84;76.43
57847;BME280;43675;50.030;21.952;2023-05-24T04:27:45;98335.60;;;15.92;76.36
57847;BME280;43675;50.030;21.952;2023-05-24T04:30:11;98334.70;;;15.99;76.29
57847;BME280;43675;50.030;21.952;2023-05-24T04:32:38;98345.05;;;16.07;76.30
57847;BME280;43675;50.030;21.952;2023-05-24T04:35:05;98345.39;;;16.15;76.19
57847;BME280;43675;50.030;21.952;2023-05-24T04:37:32;98351.14;;;16.24;76.10
57847;BME280;43675;50.030;21.952;2023-05-24T04:39:59;98354.68;;;16.34;76.01
57847;BME280;43675;50.030;21.952;2023-05-24T04:42:25;98352.48;;;16.43;75.88
57847;BME280;43675;50.030;21.952;2023-05-24T04:44:52;98359.69;;;16.52;75.80
57847;BME280;43675;50.030;21.952;2023-05-24T04:47:19;98360.48;;;16.61;75.49
57847;BME280;43675;50.030;21.952;2023-05-24T04:49:45;98364.85;;;16.72;75.37
57847;BME280;43675;50.030;21.952;2023-05-24T04:52:15;98359.64;;;16.81;75.12
57847;BME280;43675;50.030;21.952;2023-05-24T04:54:42;98364.95;;;16.91;75.02
57847;BME280;43675;50.030;21.952;2023-05-24T04:57:09;98362.73;;;17.01;74.72
57847;BME280;43675;50.030;21.952;2023-05-24T04:59:35;98368.16;;;17.10;74.65
57847;BME280;43675;50.030;21.952;2023-05-24T05:02:02;98369.06;;;17.18;74.50
57847;BME280;43675;50.030;21.952;2023-05-24T05:04:28;98368.98;;;17.26;74.29
57847;BME280;43675;50.030;21.952;2023-05-24T05:06:56;98371.90;;;17.34;74.17
57847;BME280;43675;50.030;21.952;2023-05-24T05:09:23;98377.63;;;17.43;73.95
57847;BME280;43675;50.030;21.952;2023-05-24T05:11:50;98378.81;;;17.54;73.79
57847;BME280;43675;50.030;21.952;2023-05-24T05:14:16;98379.25;;;17.64;73.67
57847;BME280;43675;50.030;21.952;2023-05-24T05:16:43;98384.55;;;17.76;73.51
57847;BME280;43675;50.030;21.952;2023-05-24T05:19:09;98384.95;;;17.88;73.27
57847;BME280;43675;50.030;21.952;2023-05-24T05:21:36;98390.30;;;18.01;72.99
57847;BME280;43675;50.030;21.952;2023-05-24T05:24:03;98393.96;;;18.14;72.78
57847;BME280;43675;50.030;21.952;2023-05-24T05:26:30;98399.41;;;18.27;72.49
57847;BME280;43675;50.030;21.952;2023-05-24T05:28:57;98401.47;;;18.40;72.23
57847;BME280;43675;50.030;21.952;2023-05-24T05:31:23;98400.85;;;18.55;71.95
57847;BME280;43675;50.030;21.952;2023-05-24T05:33:50;98405.40;;;18.71;71.58
57847;BME280;43675;50.030;21.952;2023-05-24T05:36:17;98407.56;;;18.88;71.19
57847;BME280;43675;50.030;21.952;2023-05-24T05:38:45;98408.50;;;19.05;70.83
57847;BME280;43675;50.030;21.952;2023-05-24T05:41:12;98410.58;;;19.23;70.14
57847;BME280;43675;50.030;21.952;2023-05-24T05:43:39;98413.96;;;19.45;69.77
57847;BME280;43675;50.030;21.952;2023-05-24T05:46:05;98413.27;;;19.58;69.35
57847;BME280;43675;50.030;21.952;2023-05-24T05:48:32;98416.04;;;19.70;69.01
57847;BME280;43675;50.030;21.952;2023-05-24T05:50:59;98422.15;;;19.79;68.81
57847;BME280;43675;50.030;21.952;2023-05-24T05:53:25;98426.12;;;19.91;68.52
57847;BME280;43675;50.030;21.952;2023-05-24T05:55:52;98428.48;;;20.00;67.84
57847;BME280;43675;50.030;21.952;2023-05-24T05:58:18;98433.63;;;20.02;67.18
57847;BME280;43675;50.030;21.952;2023-05-24T06:00:45;98436.95;;;20.01;66.83
57847;BME280;43675;50.030;21.952;2023-05-24T06:03:11;98436.52;;;20.01;66.65
57847;BME280;43675;50.030;21.952;2023-05-24T06:05:38;98440.95;;;20.06;66.37
57847;BME280;43675;50.030;21.952;2023-05-24T06:08:05;98437.27;;;20.11;66.03
57847;BME280;43675;50.030;21.952;2023-05-24T06:10:31;98446.66;;;20.28;65.39
57847;BME280;43675;50.030;21.952;2023-05-24T06:13:01;98448.62;;;20.47;64.95
57847;BME280;43675;50.030;21.952;2023-05-24T06:15:28;98450.52;;;20.62;64.26
57847;BME280;43675;50.030;21.952;2023-05-24T06:17:55;98457.73;;;20.69;64.01
57847;BME280;43675;50.030;21.952;2023-05-24T06:20:21;98461.07;;;20.78;63.56
57847;BME280;43675;50.030;21.952;2023-05-24T06:22:48;98464.94;;;20.73;63.48
57847;BME280;43675;50.030;21.952;2023-05-24T06:25:15;98466.78;;;20.75;63.51
57847;BME280;43675;50.030;21.952;2023-05-24T06:27:41;98467.73;;;20.77;63.04
57847;BME280;43675;50.030;21.952;2023-05-24T06:30:08;98467.31;;;20.77;62.95
57847;BME280;43675;50.030;21.952;2023-05-24T06:32:35;98472.58;;;20.80;62.70
57847;BME280;43675;50.030;21.952;2023-05-24T06:35:02;98471.84;;;20.84;62.38
57847;BME280;43675;50.030;21.952;2023-05-24T06:37:29;98475.15;;;20.86;62.17
57847;BME280;43675;50.030;21.952;2023-05-24T06:39:55;98473.41;;;20.90;62.09
57847;BME280;43675;50.030;21.952;2023-05-24T06:42:23;98478.50;;;20.89;61.70
57847;BME280;43675;50.030;21.952;2023-05-24T06:44:50;98481.52;;;20.87;61.57
57847;BME280;43675;50.030;21.952;2023-05-24T06:47:16;98483.29;;;20.85;61.59
57847;BME280;43675;50.030;21.952;2023-05-24T06:49:43;98483.95;;;20.84;61.49
57847;BME280;43675;50.030;21.952;2023-05-24T06:52:10;98485.16;;;20.75;61.36
57847;BME280;43675;50.030;21.952;2023-05-24T06:54:36;98490.48;;;20.64;61.28
57847;BME280;43675;50.030;21.952;2023-05-24T06:57:03;98487.98;;;20.49;61.13
57847;BME280;43675;50.030;21.952;2023-05-24T06:59:30;98494.20;;;20.29;61.48
57847;BME280;43675;50.030;21.952;2023-05-24T07:01:56;98495.64;;;20.13;61.80
57847;BME280;43675;50.030;21.952;2023-05-24T07:04:24;98498.13;;;20.13;62.25
57847;BME280;43675;50.030;21.952;2023-05-24T07:06:51;98497.29;;;20.19;61.98
57847;BME280;43675;50.030;21.952;2023-05-24T07:09:18;98499.83;;;20.22;61.80
57847;BME280;43675;50.030;21.952;2023-05-24T07:11:45;98497.90;;;20.15;61.64
57847;BME280;43675;50.030;21.952;2023-05-24T07:14:12;98503.60;;;20.19;61.82
57847;BME280;43675;50.030;21.952;2023-05-24T07:16:38;98508.16;;;20.38;61.80
57847;BME280;43675;50.030;21.952;2023-05-24T07:19:05;98506.34;;;20.59;61.40
57847;BME280;43675;50.030;21.952;2023-05-24T07:21:31;98510.77;;;20.80;60.91
57847;BME280;43675;50.030;21.952;2023-05-24T07:23:58;98511.61;;;21.04;60.39
57847;BME280;43675;50.030;21.952;2023-05-24T07:26:25;98517.10;;;21.32;59.91
57847;BME280;43675;50.030;21.952;2023-05-24T07:28:51;98519.63;;;21.62;59.44
57847;BME280;43675;50.030;21.952;2023-05-24T07:31:20;98520.98;;;21.90;58.70
57847;BME280;43675;50.030;21.952;2023-05-24T07:33:47;98521.01;;;22.14;58.30
57847;BME280;43675;50.030;21.952;2023-05-24T07:36:14;98523.61;;;22.24;57.76
57847;BME280;43675;50.030;21.952;2023-05-24T07:38:40;98525.69;;;22.41;57.40
57847;BME280;43675;50.030;21.952;2023-05-24T07:41:07;98524.88;;;22.59;56.98
57847;BME280;43675;50.030;21.952;2023-05-24T07:43:36;98529.01;;;22.77;56.56
57847;BME280;43675;50.030;21.952;2023-05-24T07:46:03;98523.67;;;22.86;56.16
57847;BME280;43675;50.030;21.952;2023-05-24T07:48:30;98530.52;;;22.93;55.79
57847;BME280;43675;50.030;21.952;2023-05-24T07:50:57;98534.91;;;22.88;55.60
57847;BME280;43675;50.030;21.952;2023-05-24T07:53:23;98538.77;;;22.86;55.51
57847;BME280;43675;50.030;21.952;2023-05-24T07:55:50;98541.67;;;22.86;55.54
57847;BME280;43675;50.030;21.952;2023-05-24T07:58:17;98548.63;;;22.82;55.35
57847;BME280;43675;50.030;21.952;2023-05-24T08:00:44;98548.01;;;22.64;55.43
57847;BME280;43675;50.030;21.952;2023-05-24T08:03:10;98552.32;;;22.48;55.43
57847;BME280;43675;50.030;21.952;2023-05-24T08:05:37;98555.38;;;22.24;55.68
57847;BME280;43675;50.030;21.952;2023-05-24T08:08:04;98561.74;;;22.13;56.01
57847;BME280;43675;50.030;21.952;2023-05-24T08:10:31;98563.52;;;22.08;56.14
57847;BME280;43675;50.030;21.952;2023-05-24T08:12:57;98564.95;;;22.01;55.99
57847;BME280;43675;50.030;21.952;2023-05-24T08:15:24;98566.64;;;21.85;55.89
57847;BME280;43675;50.030;21.952;2023-05-24T08:17:51;98564.51;;;21.60;55.85
57847;BME280;43675;50.030;21.952;2023-05-24T08:20:18;98562.01;;;21.48;56.49
57847;BME280;43675;50.030;21.952;2023-05-24T08:22:45;98563.79;;;21.48;56.65
57847;BME280;43675;50.030;21.952;2023-05-24T08:25:11;98566.02;;;21.50;56.66
57847;BME280;43675;50.030;21.952;2023-05-24T08:27:38;98568.79;;;21.68;56.60
57847;BME280;43675;50.030;21.952;2023-05-24T08:30:06;98577.63;;;21.90;56.27
57847;BME280;43675;50.030;21.952;2023-05-24T08:32:34;98578.70;;;22.12;56.03
57847;BME280;43675;50.030;21.952;2023-05-24T08:35:00;98579.27;;;22.37;55.57
57847;BME280;43675;50.030;21.952;2023-05-24T08:37:27;98578.48;;;22.54;55.21
57847;BME280;43675;50.030;21.952;2023-05-24T08:40:01;98584.28;;;22.72;54.85
57847;BME280;43675;50.030;21.952;2023-05-24T08:42:29;98583.27;;;22.93;54.46
57847;BME280;43675;50.030;21.952;2023-05-24T08:45:19;98585.14;;;23.02;54.20
57847;BME280;43675;50.030;21.952;2023-05-24T08:47:49;98588.91;;;23.07;54.32
57847;BME280;43675;50.030;21.952;2023-05-24T08:50:16;98590.44;;;23.15;53.76
57847;BME280;43675;50.030;21.952;2023-05-24T08:52:44;98587.71;;;23.24;53.93
57847;BME280;43675;50.030;21.952;2023-05-24T08:55:11;98583.38;;;23.31;53.17
57847;BME280;43675;50.030;21.952;2023-05-24T08:57:38;98586.26;;;23.29;52.83
57847;BME280;43675;50.030;21.952;2023-05-24T09:00:10;98587.84;;;23.39;53.06
57847;BME280;43675;50.030;21.952;2023-05-24T09:02:38;98589.58;;;23.58;52.76
57847;BME280;43675;50.030;21.952;2023-05-24T09:05:09;98586.08;;;23.77;52.13
57847;BME280;43675;50.030;21.952;2023-05-24T09:07:36;98588.66;;;23.83;51.54
57847;BME280;43675;50.030;21.952;2023-05-24T09:10:04;98589.23;;;23.74;51.98
57847;BME280;43675;50.030;21.952;2023-05-24T09:12:32;98587.20;;;23.68;52.24
57847;BME280;43675;50.030;21.952;2023-05-24T09:14:59;98589.77;;;23.68;52.52
57847;BME280;43675;50.030;21.952;2023-05-24T09:17:26;98590.98;;;23.71;52.36
57847;BME280;43675;50.030;21.952;2023-05-24T09:19:53;98594.45;;;23.61;52.12
57847;BME280;43675;50.030;21.952;2023-05-24T09:22:24;98593.77;;;23.49;52.15
57847;BME280;43675;50.030;21.952;2023-05-24T09:24:51;98597.33;;;23.42;52.16
57847;BME280;43675;50.030;21.952;2023-05-24T09:27:18;98594.38;;;23.39;52.32
57847;BME280;43675;50.030;21.952;2023-05-24T09:29:45;98601.77;;;23.21;52.02
57847;BME280;43675;50.030;21.952;2023-05-24T09:32:12;98601.20;;;23.13;51.97
57847;BME280;43675;50.030;21.952;2023-05-24T09:34:40;98602.09;;;23.15;52.22
57847;BME280;43675;50.030;21.952;2023-05-24T09:37:13;98597.70;;;23.09;52.03
57847;BME280;43675;50.030;21.952;2023-05-24T09:39:39;98594.14;;;22.98;52.42
57847;BME280;43675;50.030;21.952;2023-05-24T09:42:06;98591.73;;;22.99;52.47
57847;BME280;43675;50.030;21.952;2023-05-24T09:44:33;98594.90;;;22.94;52.46
57847;BME280;43675;50.030;21.952;2023-05-24T09:47:03;98594.05;;;22.78;52.36
57847;BME280;43675;50.030;21.952;2023-05-24T09:49:30;98601.23;;;22.48;52.68
57847;BME280;43675;50.030;21.952;2023-05-24T09:51:57;98603.59;;;22.20;53.28
57847;BME280;43675;50.030;21.952;2023-05-24T09:54:23;98604.14;;;22.01;53.63
57847;BME280;43675;50.030;21.952;2023-05-24T09:56:50;98608.52;;;21.95;53.83
57847;BME280;43675;50.030;21.952;2023-05-24T09:59:17;98613.96;;;21.93;53.98
57847;BME280;43675;50.030;21.952;2023-05-24T10:01:44;98610.49;;;21.95;54.36
57847;BME280;43675;50.030;21.952;2023-05-24T10:04:11;98615.04;;;22.09;54.21
57847;BME280;43675;50.030;21.952;2023-05-24T10:06:38;98617.55;;;22.28;54.52
57847;BME280;43675;50.030;21.952;2023-05-24T10:09:07;98618.27;;;22.49;54.03
57847;BME280;43675;50.030;21.952;2023-05-24T10:11:35;98618.66;;;22.65;53.66
57847;BME280;43675;50.030;21.952;2023-05-24T10:14:05;98627.55;;;22.78;53.82
57847;BME280;43675;50.030;21.952;2023-05-24T10:16:32;98626.02;;;22.86;53.25
57847;BME280;43675;50.030;21.952;2023-05-24T10:18:58;98628.14;;;22.93;53.12
57847;BME280;43675;50.030;21.952;2023-05-24T10:21:28;98629.11;;;23.09;52.91
57847;BME280;43675;50.030;21.952;2023-05-24T10:23:58;98635.02;;;23.24;53.13
57847;BME280;43675;50.030;21.952;2023-05-24T10:26:28;98637.22;;;23.20;52.69
57847;BME280;43675;50.030;21.952;2023-05-24T10:29:00;98632.45;;;23.20;52.65
57847;BME280;43675;50.030;21.952;2023-05-24T10:31:35;98631.98;;;23.25;52.58
57847;BME280;43675;50.030;21.952;2023-05-24T10:34:04;98633.28;;;23.27;52.45
57847;BME280;43675;50.030;21.952;2023-05-24T10:36:32;98634.98;;;23.08;52.69
57847;BME280;43675;50.030;21.952;2023-05-24T10:38:59;98640.35;;;22.86;53.15
57847;BME280;43675;50.030;21.952;2023-05-24T10:41:26;98648.42;;;22.72;53.70
57847;BME280;43675;50.030;21.952;2023-05-24T10:43:53;98647.54;;;22.62;53.57
57847;BME280;43675;50.030;21.952;2023-05-24T10:46:20;98654.36;;;22.55;53.89
57847;BME280;43675;50.030;21.952;2023-05-24T10:49:00;98653.74;;;22.47;53.93
57847;BME280;43675;50.030;21.952;2023-05-24T10:51:32;98654.09;;;22.50;54.21
57847;BME280;43675;50.030;21.952;2023-05-24T10:54:16;98656.10;;;22.59;53.77
57847;BME280;43675;50.030;21.952;2023-05-24T10:56:45;98657.39;;;22.70;54.08
57847;BME280;43675;50.030;21.952;2023-05-24T10:59:29;98658.03;;;22.78;53.68
57847;BME280;43675;50.030;21.952;2023-05-24T11:01:57;98663.64;;;22.80;53.68
57847;BME280;43675;50.030;21.952;2023-05-24T11:04:24;98666.23;;;22.83;53.86
57847;BME280;43675;50.030;21.952;2023-05-24T11:06:55;98668.22;;;22.84;53.63
57847;BME280;43675;50.030;21.952;2023-05-24T11:09:22;98666.95;;;22.72;53.54
57847;BME280;43675;50.030;21.952;2023-05-24T11:11:53;98662.30;;;22.58;53.63
57847;BME280;43675;50.030;21.952;2023-05-24T11:14:29;98659.98;;;22.55;53.82
57847;BME280;43675;50.030;21.952;2023-05-24T11:16:57;98658.90;;;22.45;54.14
57847;BME280;43675;50.030;21.952;2023-05-24T11:19:30;98657.09;;;22.45;54.16
57847;BME280;43675;50.030;21.952;2023-05-24T11:21:57;98653.92;;;22.58;54.15
57847;BME280;43675;50.030;21.952;2023-05-24T11:24:26;98654.31;;;22.69;54.03
57847;BME280;43675;50.030;21.952;2023-05-24T11:26:52;98653.21;;;22.73;54.07
57847;BME280;43675;50.030;21.952;2023-05-24T11:29:19;98653.38;;;22.74;54.24
57847;BME280;43675;50.030;21.952;2023-05-24T11:31:59;98654.28;;;22.71;54.14
57847;BME280;43675;50.030;21.952;2023-05-24T11:34:25;98653.80;;;22.60;54.07
57847;BME280;43675;50.030;21.952;2023-05-24T11:36:52;98652.38;;;22.50;54.26
57847;BME280;43675;50.030;21.952;2023-05-24T11:39:19;98652.20;;;22.56;54.59
57847;BME280;43675;50.030;21.952;2023-05-24T11:41:46;98651.34;;;22.69;54.61
57847;BME280;43675;50.030;21.952;2023-05-24T11:44:16;98641.75;;;22.87;53.83
57847;BME280;43675;50.030;21.952;2023-05-24T11:46:44;98643.25;;;22.90;53.85
57847;BME280;43675;50.030;21.952;2023-05-24T11:49:13;98642.94;;;22.89;53.89
57847;BME280;43675;50.030;21.952;2023-05-24T11:51:42;98644.45;;;22.94;54.15
57847;BME280;43675;50.030;21.952;2023-05-24T11:54:09;98646.55;;;23.07;53.59
57847;BME280;43675;50.030;21.952;2023-05-24T11:56:36;98646.36;;;23.12;53.42
57847;BME280;43675;50.030;21.952;2023-05-24T11:59:22;98648.73;;;23.11;53.59
57847;BME280;43675;50.030;21.952;2023-05-24T12:01:56;98644.27;;;22.95;53.51
57847;BME280;43675;50.030;21.952;2023-05-24T12:04:23;98636.34;;;22.83;53.46
57847;BME280;43675;50.030;21.952;2023-05-24T12:06:50;98634.66;;;22.85;53.74
57847;BME280;43675;50.030;21.952;2023-05-24T12:09:16;98638.47;;;23.02;53.90
57847;BME280;43675;50.030;21.952;2023-05-24T12:11:45;98644.71;;;23.21;53.58
57847;BME280;43675;50.030;21.952;2023-05-24T12:14:13;98638.52;;;23.13;53.06
57847;BME280;43675;50.030;21.952;2023-05-24T12:16:42;98645.36;;;23.06;53.41
57847;BME280;43675;50.030;21.952;2023-05-24T12:19:19;98643.81;;;22.85;53.31
57847;BME280;43675;50.030;21.952;2023-05-24T12:21:47;98638.93;;;22.69;53.69
57847;BME280;43675;50.030;21.952;2023-05-24T12:24:16;98639.30;;;22.60;53.76
57847;BME280;43675;50.030;21.952;2023-05-24T12:26:45;98639.84;;;22.55;54.06
57847;BME280;43675;50.030;21.952;2023-05-24T12:29:12;98639.69;;;22.46;54.12
57847;BME280;43675;50.030;21.952;2023-05-24T12:31:41;98644.50;;;22.42;54.20
57847;BME280;43675;50.030;21.952;2023-05-24T12:34:18;98646.06;;;22.36;54.17
57847;BME280;43675;50.030;21.952;2023-05-24T12:36:46;98646.27;;;22.22;54.51
57847;BME280;43675;50.030;21.952;2023-05-24T12:39:21;98645.89;;;22.11;54.79
57847;BME280;43675;50.030;21.952;2023-05-24T12:41:52;98649.63;;;22.09;54.66
57847;BME280;43675;50.030;21.952;2023-05-24T12:44:32;98642.96;;;22.19;54.86
57847;BME280;43675;50.030;21.952;2023-05-24T12:47:00;98642.09;;;22.37;54.69
57847;BME280;43675;50.030;21.952;2023-05-24T12:49:27;98638.25;;;22.48;54.43
57847;BME280;43675;50.030;21.952;2023-05-24T12:51:55;98639.23;;;22.56;54.40
57847;BME280;43675;50.030;21.952;2023-05-24T12:54:24;98637.30;;;22.69;54.22
57847;BME280;43675;50.030;21.952;2023-05-24T12:56:52;98635.83;;;22.85;53.97
57847;BME280;43675;50.030;21.952;2023-05-24T12:59:19;98638.86;;;22.97;53.87
57847;BME280;43675;50.030;21.952;2023-05-24T13:01:46;98633.70;;;23.09;53.69
57847;BME280;43675;50.030;21.952;2023-05-24T13:04:12;98635.89;;;23.10;53.39
57847;BME280;43675;50.030;21.952;2023-05-24T13:06:39;98633.84;;;23.12;53.38
57847;BME280;43675;50.030;21.952;2023-05-24T13:09:06;98634.83;;;23.14;53.20
57847;BME280;43675;50.030;21.952;2023-05-24T13:11:33;98632.02;;;23.23;53.32